createdAt,value
2023-04-28T00:00:26.323Z,27.57
2023-04-28T00:03:01.038Z,27.54
2023-04-28T00:05:36.556Z,27.51
2023-04-28T00:08:09.380Z,27.50
2023-04-28T00:10:43.169Z,27.47
2023-04-28T00:13:17.808Z,27.46
2023-04-28T00:15:50.182Z,27.43
2023-04-28T00:18:26.488Z,27.42
2023-04-28T00:21:02.090Z,27.41
2023-04-28T00:23:34.765Z,27.39
2023-04-28T00:26:11.363Z,27.39
2023-04-28T00:28:43.264Z,27.38
2023-04-28T00:31:30.205Z,27.38
2023-04-28T00:34:05.667Z,27.37
2023-04-28T00:36:37.253Z,27.36
2023-04-28T00:39:11.284Z,27.37
2023-04-28T00:41:59.188Z,27.37
2023-04-28T00:44:30.696Z,27.37
2023-04-28T00:47:05.059Z,27.38
2023-04-28T00:49:36.225Z,27.38
2023-04-28T00:52:09.277Z,27.39
2023-04-28T00:54:40.681Z,27.39
2023-04-28T00:57:13.386Z,27.41
2023-04-28T00:59:43.679Z,27.41
2023-04-28T01:02:18.034Z,27.42
2023-04-28T01:04:49.207Z,27.43
2023-04-28T01:07:19.543Z,27.44
2023-04-28T01:09:49.717Z,27.45
2023-04-28T01:12:21.747Z,27.45
2023-04-28T01:14:52.888Z,27.44
2023-04-28T01:17:23.355Z,27.46
2023-04-28T01:19:53.519Z,27.46
2023-04-28T01:22:23.630Z,27.47
2023-04-28T01:24:55.774Z,27.46
2023-04-28T01:27:26.835Z,27.46
2023-04-28T01:29:57.733Z,27.47
2023-04-28T01:32:28.265Z,27.46
2023-04-28T01:34:58.246Z,27.47
2023-04-28T01:37:28.617Z,27.47
2023-04-28T01:40:00.873Z,27.48
2023-04-28T01:42:31.053Z,27.48
2023-04-28T01:45:01.412Z,27.46
2023-04-28T01:47:31.544Z,27.47
2023-04-28T01:50:02.156Z,27.47
2023-04-28T01:52:32.668Z,27.46
2023-04-28T01:55:05.023Z,27.46
2023-04-28T01:57:35.930Z,27.46
2023-04-28T02:00:07.323Z,27.46
2023-04-28T02:02:38.065Z,27.47
2023-04-28T02:05:09.313Z,27.47
2023-04-28T02:07:39.812Z,27.48
2023-04-28T02:10:12.785Z,27.48
2023-04-28T02:12:43.308Z,27.48
2023-04-28T02:15:14.922Z,27.48
2023-04-28T02:17:45.232Z,27.47
2023-04-28T02:20:16.102Z,27.47
2023-04-28T02:22:46.111Z,27.46
2023-04-28T02:25:18.236Z,27.45
2023-04-28T02:27:48.412Z,27.44
2023-04-28T02:30:18.788Z,27.43
2023-04-28T02:32:48.724Z,27.41
2023-04-28T02:35:19.537Z,27.41
2023-04-28T02:37:49.888Z,27.39
2023-04-28T02:40:21.718Z,27.39
2023-04-28T02:42:52.128Z,27.37
2023-04-28T02:45:22.719Z,27.36
2023-04-28T02:47:53.043Z,27.35
2023-04-28T02:50:23.038Z,27.35
2023-04-28T02:52:52.592Z,27.35
2023-04-28T02:55:25.338Z,27.35
2023-04-28T02:57:55.553Z,27.33
2023-04-28T03:00:25.696Z,27.32
2023-04-28T03:02:55.979Z,27.31
2023-04-28T03:05:26.376Z,27.29
2023-04-28T03:07:57.171Z,27.28
2023-04-28T03:10:29.487Z,27.27
2023-04-28T03:12:59.535Z,27.25
2023-04-28T03:15:29.944Z,27.23
2023-04-28T03:18:01.900Z,27.21
2023-04-28T03:20:32.549Z,27.19
2023-04-28T03:23:04.139Z,27.16
2023-04-28T03:25:36.924Z,27.15
2023-04-28T03:28:07.489Z,27.12
2023-04-28T03:30:38.196Z,27.10
2023-04-28T03:33:08.739Z,27.09
2023-04-28T03:35:39.184Z,27.07
2023-04-28T03:38:09.402Z,27.05
2023-04-28T03:40:42.194Z,27.03
2023-04-28T03:43:11.828Z,27.01
2023-04-28T03:45:43.114Z,27.00
2023-04-28T03:48:12.949Z,27.01
2023-04-28T03:50:42.998Z,27.01
2023-04-28T03:53:13.068Z,27.00
2023-04-28T03:55:44.998Z,26.99
2023-04-28T03:58:15.406Z,26.98
2023-04-28T04:00:46.027Z,26.97
2023-04-28T04:03:17.087Z,26.95
2023-04-28T04:05:48.092Z,26.94
2023-04-28T04:08:18.303Z,26.95
2023-04-28T04:10:50.730Z,26.95
2023-04-28T04:13:21.261Z,26.94
2023-04-28T04:15:53.084Z,26.94
2023-04-28T04:18:23.027Z,26.95
2023-04-28T04:20:54.514Z,26.96
2023-04-28T04:23:24.810Z,26.95
2023-04-28T04:25:56.771Z,26.96
2023-04-28T04:28:27.371Z,26.96
2023-04-28T04:30:57.863Z,26.97
2023-04-28T04:33:28.754Z,26.98
2023-04-28T04:35:59.105Z,26.98
2023-04-28T04:38:29.028Z,27.00
2023-04-28T04:41:01.445Z,27.02
2023-04-28T04:43:31.825Z,27.05
2023-04-28T04:46:04.396Z,27.06
2023-04-28T04:48:34.496Z,27.08
2023-04-28T04:51:04.243Z,27.08
2023-04-28T04:53:34.576Z,27.11
2023-04-28T04:56:06.527Z,27.13
2023-04-28T04:58:36.839Z,27.15
2023-04-28T05:01:07.099Z,27.19
2023-04-28T05:03:37.571Z,27.22
2023-04-28T05:06:08.037Z,27.23
2023-04-28T05:08:38.800Z,27.28
2023-04-28T05:11:11.179Z,27.33
2023-04-28T05:13:41.645Z,27.35
2023-04-28T05:16:12.115Z,27.39
2023-04-28T05:18:42.366Z,27.44
2023-04-28T05:21:13.122Z,27.47
2023-04-28T05:23:43.146Z,27.50
2023-04-28T05:26:15.779Z,27.53
2023-04-28T05:28:46.328Z,27.55
2023-04-28T05:31:17.295Z,27.58
2023-04-28T05:33:47.774Z,27.64
2023-04-28T05:36:18.551Z,27.67
2023-04-28T05:38:48.627Z,27.71
2023-04-28T05:41:20.584Z,27.75
2023-04-28T05:43:51.621Z,27.79
2023-04-28T05:46:30.073Z,27.85
2023-04-28T05:49:01.466Z,27.90
2023-04-28T05:51:31.151Z,27.96
2023-04-28T05:54:01.841Z,28.01
2023-04-28T05:56:33.817Z,28.06
2023-04-28T05:59:05.313Z,28.12
2023-04-28T06:01:35.434Z,28.16
2023-04-28T06:04:06.123Z,28.20
2023-04-28T06:06:36.787Z,28.23
2023-04-28T06:09:07.276Z,28.25
2023-04-28T06:11:39.473Z,28.28
2023-04-28T06:14:09.682Z,28.29
2023-04-28T06:16:40.071Z,28.31
2023-04-28T06:19:10.811Z,28.32
2023-04-28T06:21:42.152Z,28.34
2023-04-28T06:24:12.527Z,28.36
2023-04-28T06:26:45.949Z,28.37
2023-04-28T06:29:16.994Z,28.38
2023-04-28T06:31:46.933Z,28.38
2023-04-28T06:34:17.784Z,28.37
2023-04-28T06:36:48.237Z,28.36
2023-04-28T06:39:18.544Z,28.39
2023-04-28T06:41:50.643Z,28.40
2023-04-28T06:44:21.175Z,28.42
2023-04-28T06:46:51.217Z,28.44
2023-04-28T06:49:21.976Z,28.48
2023-04-28T06:51:51.669Z,28.50
2023-04-28T06:54:21.210Z,28.53
2023-04-28T06:56:53.537Z,28.58
2023-04-28T06:59:23.184Z,28.60
2023-04-28T07:01:53.673Z,28.63
2023-04-28T07:04:24.397Z,28.65
2023-04-28T07:06:54.442Z,28.68
2023-04-28T07:09:25.026Z,28.73
2023-04-28T07:11:58.675Z,28.77
2023-04-28T07:14:29.105Z,28.79
2023-04-28T07:16:59.523Z,28.82
2023-04-28T07:19:29.833Z,28.86
2023-04-28T07:21:59.978Z,28.89
2023-04-28T07:24:29.870Z,28.92
2023-04-28T07:27:02.280Z,28.96
2023-04-28T07:29:35.005Z,28.99
2023-04-28T07:32:07.503Z,29.01
2023-04-28T07:34:38.659Z,29.04
2023-04-28T07:37:09.215Z,29.07
2023-04-28T07:39:39.853Z,29.12
2023-04-28T07:42:13.195Z,29.15
2023-04-28T07:44:43.364Z,29.19
2023-04-28T07:47:14.095Z,29.23
2023-04-28T07:49:44.711Z,29.28
2023-04-28T07:52:14.451Z,29.32
2023-04-28T07:54:44.440Z,29.38
2023-04-28T07:57:16.547Z,29.44
2023-04-28T07:59:46.676Z,29.47
2023-04-28T08:02:17.740Z,29.51
2023-04-28T08:04:48.864Z,29.54
2023-04-28T08:07:19.494Z,29.57
2023-04-28T08:09:50.352Z,29.60
2023-04-28T08:12:24.198Z,29.61
2023-04-28T08:14:54.435Z,29.65
2023-04-28T08:17:24.674Z,29.67
2023-04-28T08:19:55.015Z,29.70
2023-04-28T08:22:25.376Z,29.72
2023-04-28T08:24:55.705Z,29.74
2023-04-28T08:27:27.846Z,29.77
2023-04-28T08:29:58.148Z,29.78
2023-04-28T08:32:28.710Z,29.81
2023-04-28T08:34:59.001Z,29.82
2023-04-28T08:37:30.384Z,29.86
2023-04-28T08:40:09.984Z,29.89
2023-04-28T08:42:42.871Z,29.92
2023-04-28T08:45:17.037Z,29.96
2023-04-28T08:47:50.004Z,29.99
2023-04-28T08:50:25.018Z,30.03
2023-04-28T08:52:57.127Z,30.04
2023-04-28T08:55:29.314Z,30.06
2023-04-28T08:58:02.991Z,30.09
2023-04-28T09:00:32.892Z,30.12
2023-04-28T09:03:03.610Z,30.13
2023-04-28T09:05:33.480Z,30.14
2023-04-28T09:08:06.247Z,30.15
2023-04-28T09:10:37.305Z,30.17
2023-04-28T09:13:09.289Z,30.17
2023-04-28T09:15:41.699Z,30.18
2023-04-28T09:18:17.395Z,30.19
2023-04-28T09:20:48.273Z,30.19
2023-04-28T09:23:21.446Z,30.23
2023-04-28T09:26:03.861Z,30.23
2023-04-28T09:28:37.231Z,30.24
2023-04-28T09:31:07.745Z,30.24
2023-04-28T09:33:38.681Z,30.25
2023-04-28T09:36:08.788Z,30.26
2023-04-28T09:38:46.641Z,30.28
2023-04-28T09:41:16.964Z,30.29
2023-04-28T09:43:48.446Z,30.32
2023-04-28T09:46:32.544Z,30.33
2023-04-28T09:49:04.524Z,30.33
2023-04-28T09:51:35.007Z,30.33
2023-04-28T09:54:06.530Z,30.33
2023-04-28T09:56:40.637Z,30.34
2023-04-28T09:59:13.671Z,30.34
2023-04-28T10:01:46.081Z,30.34
2023-04-28T10:04:17.799Z,30.35
2023-04-28T10:06:48.280Z,30.34
2023-04-28T10:09:19.283Z,30.34
2023-04-28T10:11:49.741Z,30.33
2023-04-28T10:14:23.234Z,30.32
2023-04-28T10:16:55.314Z,30.30
2023-04-28T10:19:26.302Z,30.27
2023-04-28T10:22:17.688Z,30.24
2023-04-28T10:25:22.584Z,30.20
2023-04-28T10:27:54.012Z,30.16
2023-04-28T10:30:29.950Z,30.15
2023-04-28T10:33:27.813Z,30.14
2023-04-28T10:35:58.473Z,30.11
2023-04-28T10:38:28.418Z,30.10
2023-04-28T10:41:02.819Z,30.10
2023-04-28T10:43:40.848Z,30.09
2023-04-28T10:46:13.342Z,30.08
2023-04-28T10:49:10.456Z,30.06
2023-04-28T10:51:40.574Z,30.05
2023-04-28T10:54:19.681Z,30.05
2023-04-28T10:57:23.791Z,30.04
2023-04-28T10:59:54.591Z,30.03
2023-04-28T11:02:45.085Z,30.02
2023-04-28T11:05:22.282Z,30.03
2023-04-28T11:08:35.033Z,30.04
2023-04-28T11:11:26.514Z,30.05
2023-04-28T11:13:58.807Z,30.05
2023-04-28T11:16:28.898Z,30.07
2023-04-28T11:19:07.698Z,30.09
2023-04-28T11:21:37.834Z,30.08
2023-04-28T11:24:13.515Z,30.07
2023-04-28T11:26:44.710Z,30.07
2023-04-28T11:29:16.841Z,30.07
2023-04-28T11:31:53.042Z,30.05
2023-04-28T11:34:27.381Z,30.03
2023-04-28T11:36:58.102Z,30.02
2023-04-28T11:39:32.321Z,30.00
2023-04-28T11:42:04.629Z,29.97
2023-04-28T11:44:35.258Z,29.95
2023-04-28T11:47:07.800Z,29.94
2023-04-28T11:49:48.646Z,29.93
2023-04-28T11:52:18.779Z,29.91
2023-04-28T11:54:58.330Z,29.92
2023-04-28T11:57:28.582Z,29.91
2023-04-28T12:00:20.006Z,29.89
2023-04-28T12:02:51.411Z,29.85
2023-04-28T12:05:24.093Z,29.85
2023-04-28T12:07:54.373Z,29.84
2023-04-28T12:10:25.000Z,29.84
2023-04-28T12:12:55.285Z,29.85
2023-04-28T12:15:25.775Z,29.84
2023-04-28T12:17:56.398Z,29.83
2023-04-28T12:20:43.114Z,29.82
2023-04-28T12:23:13.054Z,29.79
2023-04-28T12:25:49.829Z,29.79
2023-04-28T12:28:20.668Z,29.76
2023-04-28T12:30:50.688Z,29.75
2023-04-28T12:33:29.380Z,29.74
2023-04-28T12:36:02.386Z,29.73
2023-04-28T12:38:34.952Z,29.72
2023-04-28T12:41:05.622Z,29.72
2023-04-28T12:43:36.057Z,29.70
2023-04-28T12:46:06.418Z,29.70
2023-04-28T12:48:36.904Z,29.67
2023-04-28T12:51:09.369Z,29.67
2023-04-28T12:53:39.825Z,29.65
2023-04-28T12:56:10.622Z,29.66
2023-04-28T12:58:41.565Z,29.64
2023-04-28T13:01:11.501Z,29.62
2023-04-28T13:03:41.458Z,29.60
2023-04-28T13:06:14.107Z,29.58
2023-04-28T13:08:45.816Z,29.56
2023-04-28T13:11:22.879Z,29.54
2023-04-28T13:13:53.738Z,29.51
2023-04-28T13:16:25.512Z,29.50
2023-04-28T13:18:55.623Z,29.48
2023-04-28T13:21:29.281Z,29.47
2023-04-28T13:23:59.597Z,29.43
2023-04-28T13:26:30.691Z,29.41
2023-04-28T13:29:00.405Z,29.36
2023-04-28T13:31:30.729Z,29.34
2023-04-28T13:34:02.486Z,29.31
2023-04-28T13:36:35.198Z,29.28
2023-04-28T13:39:06.713Z,29.24
2023-04-28T13:41:36.312Z,29.22
2023-04-28T13:44:06.735Z,29.18
2023-04-28T13:46:36.945Z,29.15
2023-04-28T13:49:07.727Z,29.13
2023-04-28T13:51:39.392Z,29.12
2023-04-28T13:54:11.802Z,29.10
2023-04-28T13:56:42.697Z,29.07
2023-04-28T13:59:12.436Z,29.06
2023-04-28T14:01:42.827Z,29.02
2023-04-28T14:04:13.464Z,28.99
2023-04-28T14:06:46.428Z,28.98
2023-04-28T14:09:16.830Z,28.95
2023-04-28T14:11:47.327Z,28.93
2023-04-28T14:14:17.239Z,28.88
2023-04-28T14:16:48.080Z,28.85
2023-04-28T14:19:18.890Z,28.81
2023-04-28T14:21:51.171Z,28.77
2023-04-28T14:24:20.839Z,28.76
2023-04-28T14:26:51.372Z,28.74
2023-04-28T14:29:21.340Z,28.73
2023-04-28T14:31:51.178Z,28.71
2023-04-28T14:34:21.411Z,28.68
2023-04-28T14:36:53.790Z,28.66
2023-04-28T14:39:24.144Z,28.63
2023-04-28T14:41:54.522Z,28.61
2023-04-28T14:44:24.814Z,28.59
2023-04-28T14:46:55.557Z,28.57
2023-04-28T14:49:27.192Z,28.54
2023-04-28T14:52:01.192Z,28.52
2023-04-28T14:54:31.193Z,28.50
2023-04-28T14:57:01.356Z,28.49
2023-04-28T14:59:31.179Z,28.46
2023-04-28T15:02:01.861Z,28.43
2023-04-28T15:04:32.010Z,28.41
2023-04-28T15:07:04.292Z,28.39
2023-04-28T15:09:34.591Z,28.36
2023-04-28T15:12:05.115Z,28.34
2023-04-28T15:14:35.588Z,28.31
2023-04-28T15:17:06.399Z,28.28
2023-04-28T15:19:37.339Z,28.24
2023-04-28T15:22:09.546Z,28.22
2023-04-28T15:24:39.659Z,28.19
2023-04-28T15:27:09.715Z,28.19
2023-04-28T15:29:40.600Z,28.18
2023-04-28T15:32:10.826Z,28.16
2023-04-28T15:34:40.959Z,28.14
2023-04-28T15:37:43.932Z,28.11
2023-04-28T15:40:17.027Z,28.09
2023-04-28T15:42:49.640Z,28.05
2023-04-28T15:45:21.571Z,28.03
2023-04-28T15:47:53.039Z,28.02
2023-04-28T15:50:24.508Z,28.00
2023-04-28T15:52:56.750Z,28.00
2023-04-28T15:55:27.544Z,27.98
2023-04-28T15:57:58.368Z,27.97
2023-04-28T16:00:28.462Z,27.98
2023-04-28T16:02:58.591Z,27.97
2023-04-28T16:05:28.962Z,27.98
2023-04-28T16:08:01.646Z,27.98
2023-04-28T16:10:32.458Z,27.96
2023-04-28T16:13:02.685Z,27.95
2023-04-28T16:15:34.832Z,27.94
2023-04-28T16:18:05.437Z,27.94
2023-04-28T16:20:35.818Z,27.92
2023-04-28T16:23:13.754Z,27.92
2023-04-28T16:25:44.500Z,27.89
2023-04-28T16:28:14.356Z,27.88
2023-04-28T16:30:45.212Z,27.88
2023-04-28T16:33:16.720Z,27.86
2023-04-28T16:35:47.226Z,27.85
2023-04-28T16:38:19.448Z,27.84
2023-04-28T16:40:49.380Z,27.82
2023-04-28T16:43:19.992Z,27.80
2023-04-28T16:45:50.331Z,27.76
2023-04-28T16:48:22.447Z,27.73
2023-04-28T16:50:52.463Z,27.70
2023-04-28T16:53:24.442Z,27.68
2023-04-28T16:55:54.133Z,27.64
2023-04-28T16:58:25.288Z,27.62
2023-04-28T17:00:55.566Z,27.60
2023-04-28T17:03:26.163Z,27.61
2023-04-28T17:05:56.450Z,27.60
2023-04-28T17:08:28.435Z,27.57
2023-04-28T17:10:58.926Z,27.56
2023-04-28T17:13:29.213Z,27.54
2023-04-28T17:16:00.832Z,27.53
2023-04-28T17:18:37.272Z,27.52
2023-04-28T17:21:08.230Z,27.50
2023-04-28T17:23:40.868Z,27.50
2023-04-28T17:26:10.889Z,27.48
2023-04-28T17:28:41.480Z,27.46
2023-04-28T17:31:12.493Z,27.45
2023-04-28T17:33:42.748Z,27.40
2023-04-28T17:36:12.973Z,27.37
2023-04-28T17:38:45.591Z,27.36
2023-04-28T17:41:15.757Z,27.34
2023-04-28T17:43:46.473Z,27.30
2023-04-28T17:46:17.295Z,27.28
2023-04-28T17:48:47.484Z,27.27
2023-04-28T17:51:18.241Z,27.24
2023-04-28T17:53:50.902Z,27.23
2023-04-28T17:56:20.991Z,27.22
2023-04-28T17:58:50.731Z,27.21
2023-04-28T18:01:20.916Z,27.21
2023-04-28T18:03:52.347Z,27.20
2023-04-28T18:06:22.849Z,27.20
2023-04-28T18:08:54.998Z,27.18
2023-04-28T18:11:27.458Z,27.19
2023-04-28T18:13:59.137Z,27.18
2023-04-28T18:16:29.478Z,27.17
2023-04-28T18:18:59.456Z,27.16
2023-04-28T18:21:29.857Z,27.15
2023-04-28T18:24:01.998Z,27.15
2023-04-28T18:26:31.972Z,27.14
2023-04-28T18:29:02.222Z,27.14
2023-04-28T18:31:32.688Z,27.13
2023-04-28T18:34:03.601Z,27.10
2023-04-28T18:36:37.283Z,27.08
2023-04-28T18:39:09.352Z,27.06
2023-04-28T18:41:40.684Z,27.02
2023-04-28T18:44:11.210Z,27.01
2023-04-28T18:46:41.774Z,26.99
2023-04-28T18:49:13.082Z,26.99
2023-04-28T18:51:44.135Z,26.98
2023-04-28T18:54:17.550Z,26.97
2023-04-28T18:56:48.453Z,26.96
2023-04-28T18:59:18.278Z,26.96
2023-04-28T19:01:49.470Z,26.95
2023-04-28T19:04:20.294Z,26.96
2023-04-28T19:06:50.730Z,26.95
2023-04-28T19:09:23.899Z,26.95
2023-04-28T19:11:54.108Z,26.95
2023-04-28T19:14:24.315Z,26.95
2023-04-28T19:16:54.733Z,26.95
2023-04-28T19:19:25.148Z,26.95
2023-04-28T19:21:55.976Z,26.93
2023-04-28T19:24:30.071Z,26.94
2023-04-28T19:27:02.520Z,26.94
2023-04-28T19:29:33.154Z,26.93
2023-04-28T19:32:03.463Z,26.92
2023-04-28T19:34:33.663Z,26.91
2023-04-28T19:37:04.378Z,26.90
2023-04-28T19:39:36.636Z,26.89
2023-04-28T19:42:07.922Z,26.88
2023-04-28T19:44:38.613Z,26.87
2023-04-28T19:47:09.178Z,26.85
2023-04-28T19:49:39.593Z,26.83
2023-04-28T19:52:10.639Z,26.82
2023-04-28T19:54:43.838Z,26.81
2023-04-28T19:57:13.539Z,26.80
2023-04-28T19:59:43.512Z,26.81
2023-04-28T20:02:13.561Z,26.81
2023-04-28T20:04:44.000Z,26.82
2023-04-28T20:07:14.498Z,26.81
2023-04-28T20:09:46.580Z,26.81
2023-04-28T20:12:17.040Z,26.80
2023-04-28T20:14:47.550Z,26.79
2023-04-28T20:17:31.183Z,26.79
2023-04-28T20:20:01.588Z,26.76
2023-04-28T20:22:32.042Z,26.76
2023-04-28T20:25:06.354Z,26.76
2023-04-28T20:27:36.978Z,26.76
2023-04-28T20:30:08.996Z,26.77
2023-04-28T20:32:38.706Z,26.77
2023-04-28T20:35:09.530Z,26.77
2023-04-28T20:37:40.093Z,26.76
2023-04-28T20:40:14.531Z,26.77
2023-04-28T20:42:44.051Z,26.76
2023-04-28T20:45:14.589Z,26.75
2023-04-28T20:47:46.114Z,26.74
2023-04-28T20:50:16.413Z,26.74
2023-04-28T20:52:47.533Z,26.74
2023-04-28T20:55:19.798Z,26.73
2023-04-28T20:57:49.998Z,26.72
2023-04-28T21:00:20.187Z,26.69
2023-04-28T21:02:50.753Z,26.67
2023-04-28T21:05:21.149Z,26.66
2023-04-28T21:07:51.521Z,26.64
2023-04-28T21:10:23.786Z,26.63
2023-04-28T21:12:55.707Z,26.60
2023-04-28T21:15:26.217Z,26.58
2023-04-28T21:17:56.721Z,26.56
2023-04-28T21:20:26.947Z,26.52
2023-04-28T21:22:57.315Z,26.50
2023-04-28T21:25:30.007Z,26.48
2023-04-28T21:28:01.515Z,26.46
2023-04-28T21:30:32.367Z,26.45
2023-04-28T21:33:03.210Z,26.45
2023-04-28T21:35:33.610Z,26.44
2023-04-28T21:38:04.014Z,26.42
2023-04-28T21:40:36.569Z,26.42
2023-04-28T21:43:07.163Z,26.40
2023-04-28T21:45:37.728Z,26.40
2023-04-28T21:48:09.022Z,26.39
2023-04-28T21:50:39.158Z,26.37
2023-04-28T21:53:09.386Z,26.38
2023-04-28T21:55:43.399Z,26.39
2023-04-28T21:58:13.994Z,26.38
2023-04-28T22:00:47.565Z,26.39
2023-04-28T22:03:18.458Z,26.38
2023-04-28T22:05:49.135Z,26.38
2023-04-28T22:08:19.927Z,26.38
2023-04-28T22:10:52.317Z,26.37
2023-04-28T22:13:23.221Z,26.37
2023-04-28T22:15:53.182Z,26.37
2023-04-28T22:18:23.441Z,26.37
2023-04-28T22:20:53.491Z,26.37
2023-04-28T22:23:23.539Z,26.36
2023-04-28T22:25:55.615Z,26.36
2023-04-28T22:28:25.621Z,26.34
2023-04-28T22:30:55.988Z,26.33
2023-04-28T22:33:26.700Z,26.32
2023-04-28T22:35:57.138Z,26.32
2023-04-28T22:38:27.700Z,26.31
2023-04-28T22:40:58.970Z,26.31
2023-04-28T22:43:31.029Z,26.29
2023-04-28T22:46:05.122Z,26.28
2023-04-28T22:48:35.662Z,26.27
2023-04-28T22:51:05.960Z,26.25
2023-04-28T22:53:36.184Z,26.24
2023-04-28T22:56:09.314Z,26.23
2023-04-28T22:58:39.841Z,26.20
2023-04-28T23:01:09.629Z,26.19
2023-04-28T23:03:41.389Z,26.15
2023-04-28T23:06:11.246Z,26.13
2023-04-28T23:08:41.506Z,26.11
2023-04-28T23:11:12.846Z,26.10
2023-04-28T23:13:43.104Z,26.08
2023-04-28T23:16:13.009Z,26.07
2023-04-28T23:18:43.576Z,26.04
2023-04-28T23:21:14.104Z,26.02
2023-04-28T23:23:44.350Z,26.01
2023-04-28T23:26:16.591Z,26.01
2023-04-28T23:28:46.837Z,26.01
2023-04-28T23:31:17.136Z,26.00
2023-04-28T23:33:47.626Z,26.01
2023-04-28T23:36:18.077Z,26.00
2023-04-28T23:38:48.319Z,26.02
2023-04-28T23:41:20.727Z,26.02
2023-04-28T23:43:52.214Z,26.01
2023-04-28T23:46:22.512Z,26.01
2023-04-28T23:48:52.440Z,26.01
2023-04-28T23:51:22.229Z,26.02
2023-04-28T23:53:53.117Z,25.99
2023-04-28T23:56:25.281Z,25.99
2023-04-28T23:58:55.445Z,25.97
